Pagina principale
METAR-TAF:

METAR-TAF

Aeroporti :

Sanandaj, Iran

latitudine: 35-20N, longitudine: 047-00E, altezza: 1373 m

Osservazione

Il bollettino è stato emesso 1 ora e 8 minuti fa, alle 00:00 UTC
Vento calmo
Temperature -1°C
Umidità 64%
Pressione 1023 hPa
Visibilità 10 km o più
nessuna nube inferiore a 1500 m e nessun cumulonembo

METAR: OICS 230000Z 00000KT CAVOK M01/M07 Q1023 A3022

Ora: 04:38 (01:08 UTC)


TAF: mancante

Osservazioni e previsioni meteorologiche di più di 4000 aeroporti (messaggi METAR e TAF).

Le stazioni disponibili sono rappresentate dai dischi gialli e rossi sulla carta.

Puntare il mouse per vedere il nome della stazione.

Clicca sopra per visualizzare le osservazioni e previsioni meteorologiche.

Per cambiare la mappa : fare clic sui pulsanti verdi con una croce nera per ingrandire, il pulsante verde con un trattino per diminuire, o sulla freccia verde per le mappe adiacenti.


METAR-TAF: